createdAt,value
2022-10-20T00:01:22.339Z,6.15
2022-10-20T00:03:53.053Z,6.40
2022-10-20T00:06:23.375Z,6.80
2022-10-20T00:08:52.083Z,6.28
2022-10-20T00:11:22.914Z,6.95
2022-10-20T00:13:52.960Z,5.60
2022-10-20T00:16:21.863Z,6.82
2022-10-20T00:18:52.311Z,6.55
2022-10-20T00:21:23.021Z,7.07
2022-10-20T00:23:51.709Z,6.93
2022-10-20T00:26:21.735Z,6.47
2022-10-20T00:28:50.630Z,6.22
2022-10-20T00:31:21.092Z,6.32
2022-10-20T00:33:52.549Z,5.57
2022-10-20T00:36:24.197Z,6.72
2022-10-20T00:38:53.369Z,5.47
2022-10-20T00:41:22.831Z,6.00
2022-10-20T00:43:53.626Z,5.63
2022-10-20T00:46:24.713Z,5.53
2022-10-20T00:48:56.468Z,6.03
2022-10-20T00:51:29.517Z,6.13
2022-10-20T00:54:04.109Z,5.90
2022-10-20T00:56:33.374Z,6.47
2022-10-20T00:59:03.258Z,5.80
2022-10-20T01:01:32.483Z,5.90
2022-10-20T01:04:01.605Z,5.65
2022-10-20T01:06:31.944Z,5.85
2022-10-20T01:09:00.859Z,5.40
2022-10-20T01:11:40.114Z,6.90
2022-10-20T01:14:26.082Z,5.07
2022-10-20T01:17:03.160Z,5.32
2022-10-20T01:20:12.076Z,5.65
2022-10-20T01:23:12.341Z,5.00
2022-10-20T01:25:51.938Z,5.22
2022-10-20T01:28:29.171Z,5.30
2022-10-20T01:31:01.724Z,5.43
2022-10-20T01:33:37.499Z,5.13
2022-10-20T01:36:12.386Z,5.30
2022-10-20T01:38:45.352Z,4.90
2022-10-20T01:41:20.548Z,4.80
2022-10-20T01:43:51.505Z,5.70
2022-10-20T01:46:23.091Z,5.18
2022-10-20T01:48:51.969Z,5.22
2022-10-20T01:51:20.372Z,4.60
2022-10-20T01:53:49.285Z,4.80
2022-10-20T01:56:22.930Z,4.35
2022-10-20T01:59:25.892Z,4.38
2022-10-20T02:02:16.436Z,4.80
2022-10-20T02:05:00.626Z,5.22
2022-10-20T02:07:31.429Z,6.53
2022-10-20T02:10:06.358Z,5.03
2022-10-20T02:12:40.143Z,4.63
2022-10-20T02:17:42.026Z,4.90
2022-10-20T02:20:13.146Z,4.85
2022-10-20T02:22:42.095Z,4.88
2022-10-20T02:25:12.949Z,4.57
2022-10-20T02:27:44.430Z,4.80
2022-10-20T02:30:17.625Z,4.72
2022-10-20T02:32:50.729Z,4.43
2022-10-20T02:35:22.328Z,4.47
2022-10-20T02:37:50.810Z,4.80
2022-10-20T02:40:19.379Z,4.53
2022-10-20T02:42:47.697Z,5.40
2022-10-20T02:45:17.828Z,4.72
2022-10-20T02:47:46.243Z,4.65
2022-10-20T02:50:14.772Z,5.30
2022-10-20T02:52:43.119Z,4.85
2022-10-20T02:55:11.811Z,5.40
2022-10-20T02:57:40.325Z,4.95
2022-10-20T03:00:10.113Z,5.13
2022-10-20T03:02:40.096Z,5.45
2022-10-20T03:05:09.006Z,5.25
2022-10-20T03:07:37.637Z,7.55
2022-10-20T03:10:06.975Z,6.53
2022-10-20T03:12:35.314Z,8.82
2022-10-20T03:15:03.744Z,7.30
2022-10-20T03:17:32.082Z,7.10
2022-10-20T03:20:02.814Z,6.60
2022-10-20T03:22:31.589Z,6.78
2022-10-20T03:25:00.030Z,6.57
2022-10-20T03:27:28.305Z,6.60
2022-10-20T03:29:56.699Z,6.60
2022-10-20T03:32:25.010Z,6.10
2022-10-20T03:34:54.004Z,9.63
2022-10-20T03:37:23.830Z,10.52
2022-10-20T03:39:52.197Z,8.50
2022-10-20T03:42:20.702Z,7.78
2022-10-20T03:44:49.177Z,7.18
2022-10-20T03:47:17.897Z,8.27
2022-10-20T03:49:46.252Z,6.03
2022-10-20T03:52:14.768Z,5.80
2022-10-20T03:54:44.938Z,5.55
2022-10-20T03:57:13.336Z,5.70
2022-10-20T03:59:41.832Z,5.32
2022-10-20T04:02:23.198Z,5.68
2022-10-20T04:04:51.588Z,4.88
2022-10-20T04:07:20.250Z,5.15
2022-10-20T04:09:50.065Z,4.63
2022-10-20T04:12:18.613Z,5.00
2022-10-20T04:14:47.021Z,5.85
2022-10-20T04:17:15.385Z,6.35
2022-10-20T04:19:43.748Z,5.68
2022-10-20T04:22:12.266Z,5.97
2022-10-20T04:24:40.798Z,6.07
2022-10-20T04:27:10.682Z,6.20
2022-10-20T04:29:39.244Z,5.25
2022-10-20T04:32:07.637Z,5.95
2022-10-20T04:34:36.690Z,7.90
2022-10-20T04:37:05.189Z,6.60
2022-10-20T04:39:33.463Z,6.85
2022-10-20T04:42:01.873Z,5.63
2022-10-20T04:44:31.624Z,5.25
2022-10-20T04:47:00.005Z,5.30
2022-10-20T04:49:28.519Z,5.45
2022-10-20T04:52:00.853Z,5.85
2022-10-20T04:54:29.635Z,5.50
2022-10-20T04:56:58.699Z,5.90
2022-10-20T04:59:27.087Z,5.45
2022-10-20T05:01:56.866Z,4.85
2022-10-20T05:04:25.429Z,5.00
2022-10-20T05:06:53.767Z,5.00
2022-10-20T05:09:22.203Z,5.18
2022-10-20T05:11:50.540Z,4.95
2022-10-20T05:14:18.810Z,5.10
2022-10-20T05:16:47.245Z,4.75
2022-10-20T05:19:16.999Z,4.90
2022-10-20T05:21:45.693Z,6.13
2022-10-20T05:24:19.835Z,4.80
2022-10-20T05:26:49.973Z,6.20
2022-10-20T05:29:18.270Z,5.57
2022-10-20T05:31:46.706Z,6.30
2022-10-20T05:34:16.565Z,7.10
2022-10-20T05:36:45.287Z,7.07
2022-10-20T05:39:13.769Z,6.43
2022-10-20T05:41:42.202Z,8.02
2022-10-20T05:44:13.767Z,7.28
2022-10-20T05:46:42.795Z,8.13
2022-10-20T05:49:15.907Z,8.45
2022-10-20T05:51:48.072Z,7.13
2022-10-20T05:54:17.179Z,7.65
2022-10-20T05:56:45.896Z,7.28
2022-10-20T05:59:14.848Z,7.07
2022-10-20T06:01:49.387Z,7.68
2022-10-20T06:04:19.660Z,7.15
2022-10-20T06:06:49.497Z,7.10
2022-10-20T06:09:18.903Z,6.85
2022-10-20T06:11:47.990Z,6.55
2022-10-20T06:14:17.459Z,6.45
2022-10-20T06:16:46.206Z,6.50
2022-10-20T06:19:14.573Z,6.55
2022-10-20T06:24:19.374Z,6.80
2022-10-20T06:26:47.846Z,7.53
2022-10-20T06:29:18.710Z,6.82
2022-10-20T06:31:49.458Z,7.53
2022-10-20T06:34:19.869Z,7.47
2022-10-20T06:36:48.812Z,7.82
2022-10-20T06:39:20.618Z,7.75
2022-10-20T06:41:50.866Z,8.98
2022-10-20T06:44:19.696Z,9.10
2022-10-20T06:46:48.594Z,9.43
2022-10-20T06:49:17.449Z,9.38
2022-10-20T06:51:46.183Z,9.95
2022-10-20T06:54:14.507Z,10.60
2022-10-20T06:56:44.346Z,12.18
2022-10-20T06:59:12.682Z,12.52
2022-10-20T07:01:42.368Z,12.68
2022-10-20T07:04:15.733Z,14.43
2022-10-20T07:06:45.838Z,20.60
2022-10-20T07:09:16.583Z,27.85
2022-10-20T07:11:46.930Z,18.67
2022-10-20T07:14:15.537Z,16.55
2022-10-20T07:16:44.310Z,14.32
2022-10-20T07:19:13.033Z,14.43
2022-10-20T07:21:45.535Z,14.27
2022-10-20T07:24:15.665Z,18.85
2022-10-20T07:26:45.991Z,13.30
2022-10-20T07:29:15.140Z,12.32
2022-10-20T07:31:46.721Z,13.32
2022-10-20T07:34:26.216Z,9.05
2022-10-20T07:36:56.755Z,9.38
2022-10-20T07:39:25.280Z,8.13
2022-10-20T07:41:55.164Z,9.00
2022-10-20T07:44:23.459Z,7.20
2022-10-20T07:46:52.194Z,7.03
2022-10-20T07:52:09.365Z,6.10
2022-10-20T07:54:37.678Z,6.18
2022-10-20T07:57:07.475Z,6.13
2022-10-20T07:59:35.872Z,6.70
2022-10-20T08:02:04.808Z,6.53
2022-10-20T08:04:33.382Z,6.47
2022-10-20T08:07:02.041Z,6.78
2022-10-20T08:09:30.670Z,6.07
2022-10-20T08:11:59.089Z,6.20
2022-10-20T08:14:32.129Z,6.47
2022-10-20T08:17:04.512Z,7.00
2022-10-20T08:19:48.448Z,8.30
2022-10-20T08:22:19.307Z,8.82
2022-10-20T08:24:48.124Z,8.20
2022-10-20T08:27:17.181Z,7.95
2022-10-20T08:29:55.050Z,8.07
2022-10-20T08:32:35.442Z,8.52
2022-10-20T08:35:04.248Z,8.93
2022-10-20T08:37:33.403Z,8.90
2022-10-20T08:40:02.018Z,8.23
2022-10-20T08:42:30.611Z,8.77
2022-10-20T08:45:01.910Z,7.47
2022-10-20T08:47:34.216Z,6.85
2022-10-20T08:50:03.918Z,5.93
2022-10-20T08:52:32.635Z,6.20
2022-10-20T08:55:01.227Z,6.05
2022-10-20T08:57:34.753Z,5.38
2022-10-20T09:00:16.410Z,5.70
2022-10-20T09:02:44.878Z,6.43
2022-10-20T09:05:18.231Z,5.95
2022-10-20T09:07:50.379Z,6.00
2022-10-20T09:10:35.136Z,6.47
2022-10-20T09:13:08.371Z,5.70
2022-10-20T09:15:39.673Z,5.10
2022-10-20T09:18:12.294Z,5.97
2022-10-20T09:20:46.158Z,5.63
2022-10-20T09:23:39.349Z,5.53
2022-10-20T09:26:04.622Z,5.00
2022-10-20T09:28:39.272Z,5.20
2022-10-20T09:31:32.989Z,5.00
2022-10-20T09:34:01.387Z,5.13
2022-10-20T09:36:35.276Z,5.10
2022-10-20T09:39:04.371Z,5.18
2022-10-20T09:41:33.709Z,4.82
2022-10-20T09:44:04.803Z,4.63
2022-10-20T09:46:40.228Z,5.50
2022-10-20T09:49:09.467Z,5.30
2022-10-20T09:51:38.627Z,4.70
2022-10-20T09:54:09.585Z,3.75
2022-10-20T09:56:41.548Z,3.28
2022-10-20T09:59:22.934Z,2.22
2022-10-20T10:01:57.877Z,2.30
2022-10-20T10:04:36.795Z,3.10
2022-10-20T10:07:07.486Z,1.95
2022-10-20T10:09:38.460Z,1.52
2022-10-20T10:12:18.100Z,2.10
2022-10-20T10:14:53.434Z,1.40
2022-10-20T10:17:33.030Z,2.20
2022-10-20T10:20:02.372Z,1.70
2022-10-20T10:22:30.818Z,2.00
2022-10-20T10:25:01.199Z,1.40
2022-10-20T10:27:31.923Z,1.98
2022-10-20T10:30:28.866Z,1.23
2022-10-20T10:32:58.921Z,2.17
2022-10-20T10:35:31.050Z,1.40
2022-10-20T10:38:00.619Z,1.20
2022-10-20T10:40:36.280Z,1.10
2022-10-20T10:43:29.958Z,0.93
2022-10-20T10:46:01.616Z,0.93
2022-10-20T10:49:05.447Z,0.80
2022-10-20T10:51:49.990Z,1.00
2022-10-20T10:54:32.333Z,1.02
2022-10-20T10:57:07.907Z,1.13
2022-10-20T10:59:42.216Z,1.15
2022-10-20T11:02:41.216Z,0.90
2022-10-20T11:05:56.091Z,3.03
2022-10-20T11:11:08.946Z,1.80
2022-10-20T11:13:44.139Z,1.10
2022-10-20T11:16:31.803Z,1.10
2022-10-20T11:19:24.854Z,1.02
2022-10-20T11:22:05.214Z,0.90
2022-10-20T11:24:47.189Z,0.93
2022-10-20T11:27:19.938Z,0.80
2022-10-20T11:29:52.533Z,1.00
2022-10-20T11:32:28.873Z,1.00
2022-10-20T11:35:15.639Z,0.80
2022-10-20T11:37:47.958Z,1.00
2022-10-20T11:40:24.667Z,1.23
2022-10-20T11:43:02.198Z,0.90
2022-10-20T11:45:38.851Z,0.90
2022-10-20T11:48:16.917Z,0.90
2022-10-20T11:50:53.617Z,0.82
2022-10-20T11:53:38.480Z,0.75
2022-10-20T11:56:43.616Z,0.80
2022-10-20T11:59:49.688Z,0.90
2022-10-20T12:02:51.696Z,0.65
2022-10-20T12:05:43.664Z,0.85
2022-10-20T12:08:40.725Z,0.70
2022-10-20T12:11:16.415Z,0.70
2022-10-20T12:13:56.144Z,0.85
2022-10-20T12:17:06.139Z,0.98
2022-10-20T12:19:36.791Z,0.63
2022-10-20T12:22:07.519Z,0.70
2022-10-20T12:24:39.123Z,0.82
2022-10-20T12:27:29.763Z,1.00
2022-10-20T12:30:22.258Z,0.70
2022-10-20T12:33:10.554Z,1.00
2022-10-20T12:36:02.432Z,0.90
2022-10-20T12:38:32.581Z,0.80
2022-10-20T12:41:02.921Z,0.80
2022-10-20T12:43:38.923Z,1.30
2022-10-20T12:48:56.695Z,1.80
2022-10-20T12:51:33.312Z,0.95
2022-10-20T12:54:05.852Z,0.90
2022-10-20T12:56:39.230Z,0.90
2022-10-20T12:59:38.293Z,0.80
2022-10-20T13:02:44.448Z,0.90
2022-10-20T13:05:46.964Z,0.85
2022-10-20T13:08:29.312Z,0.90
2022-10-20T13:10:59.478Z,0.90
2022-10-20T13:13:46.483Z,0.70
2022-10-20T13:16:22.748Z,0.80
2022-10-20T13:18:54.901Z,0.90
2022-10-20T13:21:30.243Z,0.80
2022-10-20T13:24:04.499Z,0.85
2022-10-20T13:26:37.587Z,0.85
2022-10-20T13:29:14.776Z,0.98
2022-10-20T13:31:49.033Z,1.00
2022-10-20T13:34:26.354Z,1.33
2022-10-20T13:37:07.355Z,1.30
2022-10-20T13:39:46.279Z,1.30
2022-10-20T13:42:29.613Z,1.52
2022-10-20T13:45:08.961Z,1.30
2022-10-20T13:47:59.717Z,1.15
2022-10-20T13:50:33.798Z,1.70
2022-10-20T13:53:06.924Z,1.30
2022-10-20T13:55:57.319Z,1.80
2022-10-20T13:58:26.464Z,1.10
2022-10-20T14:01:01.321Z,1.48
2022-10-20T14:03:30.941Z,1.70
2022-10-20T14:06:00.758Z,1.80
2022-10-20T14:08:29.222Z,1.20
2022-10-20T14:11:00.094Z,1.33
2022-10-20T14:13:34.577Z,1.70
2022-10-20T14:16:06.370Z,1.30
2022-10-20T14:18:39.779Z,1.70
2022-10-20T14:21:17.106Z,1.50
2022-10-20T14:23:48.963Z,1.40
2022-10-20T14:26:19.394Z,1.42
2022-10-20T14:28:50.307Z,1.60
2022-10-20T14:31:23.609Z,1.50
2022-10-20T14:33:53.680Z,1.48
2022-10-20T14:38:57.623Z,1.85
2022-10-20T14:41:28.394Z,1.58
2022-10-20T14:44:04.897Z,1.60
2022-10-20T14:46:39.182Z,1.70
2022-10-20T14:49:16.328Z,1.83
2022-10-20T14:51:55.760Z,1.48
2022-10-20T14:57:24.042Z,2.88
2022-10-20T14:59:56.402Z,3.47
2022-10-20T15:02:27.616Z,2.42
2022-10-20T15:04:56.136Z,1.90
2022-10-20T15:07:29.936Z,1.88
2022-10-20T15:10:05.168Z,2.17
2022-10-20T15:12:40.036Z,2.15
2022-10-20T15:15:20.714Z,1.88
2022-10-20T15:17:50.738Z,2.03
2022-10-20T15:20:34.920Z,1.70
2022-10-20T15:23:06.562Z,2.17
2022-10-20T15:25:42.586Z,1.92
2022-10-20T15:28:24.205Z,2.30
2022-10-20T15:30:52.747Z,1.90
2022-10-20T15:33:21.825Z,2.42
2022-10-20T15:35:51.058Z,1.80
2022-10-20T15:38:21.306Z,2.03
2022-10-20T15:40:50.110Z,2.28
2022-10-20T15:43:20.224Z,1.90
2022-10-20T15:45:54.203Z,2.47
2022-10-20T15:48:24.090Z,2.90
2022-10-20T15:50:53.525Z,2.15
2022-10-20T15:53:23.708Z,2.50
2022-10-20T15:55:52.314Z,2.60
2022-10-20T15:58:21.564Z,2.83
2022-10-20T16:00:50.091Z,2.70
2022-10-20T16:03:20.363Z,2.40
2022-10-20T16:05:48.946Z,2.20
2022-10-20T16:08:17.557Z,3.55
2022-10-20T16:10:47.700Z,4.15
2022-10-20T16:13:18.499Z,2.30
2022-10-20T16:15:46.848Z,2.05
2022-10-20T16:18:15.220Z,2.75
2022-10-20T16:20:43.627Z,2.22
2022-10-20T16:23:12.049Z,2.00
2022-10-20T16:25:41.639Z,2.28
2022-10-20T16:28:11.566Z,2.05
2022-10-20T16:30:40.284Z,2.20
2022-10-20T16:33:08.746Z,2.53
2022-10-20T16:35:42.739Z,2.20
2022-10-20T16:38:12.209Z,1.98
2022-10-20T16:40:40.903Z,2.08
2022-10-20T16:43:10.781Z,2.50
2022-10-20T16:45:41.012Z,2.55
2022-10-20T16:48:09.534Z,2.63
2022-10-20T16:50:43.127Z,2.80
2022-10-20T16:53:11.703Z,2.90
2022-10-20T16:55:40.515Z,2.75
2022-10-20T16:58:10.855Z,3.90
2022-10-20T17:00:39.277Z,4.45
2022-10-20T17:03:08.236Z,6.55
2022-10-20T17:05:36.688Z,3.88
2022-10-20T17:08:05.526Z,2.92
2022-10-20T17:10:34.496Z,3.25
2022-10-20T17:13:02.813Z,2.50
2022-10-20T17:15:32.787Z,7.60
2022-10-20T17:18:01.170Z,6.63
2022-10-20T17:20:31.569Z,3.00
2022-10-20T17:23:01.113Z,2.88
2022-10-20T17:25:30.984Z,3.92
2022-10-20T17:28:01.912Z,5.55
2022-10-20T17:30:33.255Z,4.15
2022-10-20T17:33:02.928Z,4.25
2022-10-20T17:35:31.591Z,3.30
2022-10-20T17:38:04.469Z,3.85
2022-10-20T17:40:39.279Z,3.95
2022-10-20T17:43:09.060Z,3.63
2022-10-20T17:45:40.675Z,3.15
2022-10-20T17:48:13.853Z,3.45
2022-10-20T17:50:44.707Z,2.97
2022-10-20T17:53:14.696Z,3.72
2022-10-20T17:55:44.944Z,6.07
2022-10-20T17:58:15.102Z,7.22
2022-10-20T18:00:56.186Z,9.15
2022-10-20T18:03:26.864Z,7.85
2022-10-20T18:05:56.594Z,6.38
2022-10-20T18:08:26.539Z,5.60
2022-10-20T18:10:56.507Z,4.40
2022-10-20T18:13:26.120Z,4.90
2022-10-20T18:15:57.614Z,4.53
2022-10-20T18:18:28.232Z,4.38
2022-10-20T18:20:58.434Z,4.28
2022-10-20T18:23:30.313Z,4.68
2022-10-20T18:26:06.838Z,4.63
2022-10-20T18:28:36.842Z,4.20
2022-10-20T18:31:09.611Z,2.95
2022-10-20T18:33:39.450Z,3.50
2022-10-20T18:36:14.171Z,3.60
2022-10-20T18:38:45.791Z,3.90
2022-10-20T18:41:17.027Z,3.65
2022-10-20T18:43:47.917Z,3.92
2022-10-20T18:46:19.093Z,3.90
2022-10-20T18:48:47.827Z,4.40
2022-10-20T18:51:19.064Z,3.65
2022-10-20T18:53:50.389Z,3.95
2022-10-20T18:56:22.083Z,3.30
2022-10-20T18:58:53.012Z,3.30
2022-10-20T19:01:27.381Z,3.80
2022-10-20T19:03:58.624Z,4.32
2022-10-20T19:06:29.892Z,4.22
2022-10-20T19:09:01.720Z,2.92
2022-10-20T19:11:33.231Z,3.45
2022-10-20T19:14:03.483Z,2.90
2022-10-20T19:16:36.495Z,3.78
2022-10-20T19:19:08.799Z,14.40
2022-10-20T19:21:39.113Z,4.97
2022-10-20T19:24:12.392Z,3.55
2022-10-20T19:26:43.682Z,3.40
2022-10-20T19:31:46.021Z,3.50
2022-10-20T19:34:17.167Z,3.45
2022-10-20T19:36:47.382Z,3.55
2022-10-20T19:39:18.562Z,3.70
2022-10-20T19:41:47.727Z,3.10
2022-10-20T19:44:17.283Z,3.47
2022-10-20T19:46:49.464Z,3.08
2022-10-20T19:49:18.027Z,3.78
2022-10-20T19:51:46.610Z,3.90
2022-10-20T19:57:48.353Z,4.03
2022-10-20T20:00:20.835Z,4.32
2022-10-20T20:02:50.907Z,4.80
2022-10-20T20:05:19.403Z,4.50
2022-10-20T20:07:47.855Z,4.88
2022-10-20T20:10:16.204Z,8.85
2022-10-20T20:12:44.548Z,5.10
2022-10-20T20:15:12.948Z,5.38
2022-10-20T20:17:42.556Z,4.60
2022-10-20T20:20:12.562Z,5.07
2022-10-20T20:22:40.916Z,5.40
2022-10-20T20:25:10.342Z,4.80
2022-10-20T20:27:39.034Z,4.75
2022-10-20T20:30:08.983Z,4.70
2022-10-20T20:32:39.367Z,4.47
2022-10-20T20:35:14.314Z,4.40
2022-10-20T20:37:42.638Z,4.60
2022-10-20T20:40:12.014Z,4.32
2022-10-20T20:42:40.317Z,3.97
2022-10-20T20:45:10.108Z,3.95
2022-10-20T20:47:38.760Z,4.28
2022-10-20T20:50:08.059Z,4.20
2022-10-20T20:52:38.219Z,4.43
2022-10-20T20:55:06.923Z,4.00
2022-10-20T20:57:35.756Z,4.00
2022-10-20T21:00:05.063Z,3.90
2022-10-20T21:02:33.445Z,3.60
2022-10-20T21:05:01.889Z,3.80
2022-10-20T21:07:30.259Z,3.55
2022-10-20T21:10:00.626Z,3.63
2022-10-20T21:12:31.774Z,3.60
2022-10-20T21:15:03.043Z,4.40
2022-10-20T21:17:32.546Z,3.95
2022-10-20T21:20:00.919Z,3.80
2022-10-20T21:22:32.127Z,3.92
2022-10-20T21:25:02.232Z,3.80
2022-10-20T21:27:31.131Z,4.18
2022-10-20T21:29:59.468Z,4.28
2022-10-20T21:32:27.912Z,4.25
2022-10-20T21:34:56.795Z,4.07
2022-10-20T21:37:25.495Z,3.30
2022-10-20T21:39:54.202Z,4.20
2022-10-20T21:42:23.991Z,3.47
2022-10-20T21:44:52.325Z,4.28
2022-10-20T21:47:20.675Z,3.67
2022-10-20T21:49:49.015Z,3.60
2022-10-20T21:52:17.447Z,3.53
2022-10-20T21:54:45.724Z,3.65
2022-10-20T21:57:16.065Z,3.40
2022-10-20T21:59:50.619Z,3.22
2022-10-20T22:02:18.986Z,3.22
2022-10-20T22:04:47.442Z,3.65
2022-10-20T22:07:15.867Z,3.50
2022-10-20T22:09:44.241Z,3.17
2022-10-20T22:12:13.188Z,3.72
2022-10-20T22:14:44.970Z,3.85
2022-10-20T22:17:16.338Z,4.00
2022-10-20T22:19:46.603Z,3.75
2022-10-20T22:22:15.080Z,4.60
2022-10-20T22:24:43.614Z,5.78
2022-10-20T22:27:24.993Z,4.20
2022-10-20T22:30:00.390Z,3.78
2022-10-20T22:32:30.183Z,4.00
2022-10-20T22:34:58.559Z,4.13
2022-10-20T22:37:26.912Z,3.95
2022-10-20T22:39:55.339Z,4.05
2022-10-20T22:42:24.940Z,4.03
2022-10-20T22:44:53.494Z,4.55
2022-10-20T22:47:22.207Z,4.00
2022-10-20T22:49:52.283Z,4.40
2022-10-20T22:52:20.619Z,4.65
2022-10-20T22:54:48.935Z,4.28
2022-10-20T22:57:17.327Z,3.88
2022-10-20T22:59:45.967Z,3.70
2022-10-20T23:02:14.419Z,3.60
2022-10-20T23:04:42.723Z,3.72
2022-10-20T23:07:12.821Z,3.78
2022-10-20T23:09:41.127Z,3.88
2022-10-20T23:12:09.535Z,3.45
2022-10-20T23:14:37.907Z,3.40
2022-10-20T23:17:06.280Z,3.72
2022-10-20T23:19:35.096Z,3.50
2022-10-20T23:22:03.404Z,3.63
2022-10-20T23:24:33.147Z,3.92
2022-10-20T23:27:01.506Z,3.40
2022-10-20T23:29:29.854Z,3.42
2022-10-20T23:31:58.687Z,3.22
2022-10-20T23:34:27.270Z,3.20
2022-10-20T23:36:55.721Z,3.65
2022-10-20T23:39:24.140Z,3.58
2022-10-20T23:41:54.231Z,3.15
2022-10-20T23:44:22.624Z,3.90
2022-10-20T23:46:52.446Z,3.50
2022-10-20T23:49:20.858Z,3.60
2022-10-20T23:51:49.701Z,3.53
2022-10-20T23:54:18.025Z,3.70
2022-10-20T23:56:46.420Z,4.18
2022-10-20T23:59:16.328Z,3.55
